createdAt,value
2022-10-19T00:01:21.771Z,7.55
2022-10-19T00:03:53.013Z,7.13
2022-10-19T00:06:31.382Z,7.43
2022-10-19T00:09:08.882Z,6.82
2022-10-19T00:11:39.940Z,7.07
2022-10-19T00:14:08.888Z,7.05
2022-10-19T00:16:38.211Z,7.05
2022-10-19T00:19:11.619Z,6.63
2022-10-19T00:21:39.425Z,5.93
2022-10-19T00:24:08.196Z,6.57
2022-10-19T00:26:35.263Z,6.63
2022-10-19T00:29:03.232Z,6.85
2022-10-19T00:31:30.062Z,7.32
2022-10-19T00:33:58.681Z,6.35
2022-10-19T00:36:36.047Z,6.68
2022-10-19T00:39:06.041Z,6.00
2022-10-19T00:41:36.079Z,6.55
2022-10-19T00:44:30.321Z,5.85
2022-10-19T00:47:05.048Z,5.95
2022-10-19T00:49:37.375Z,6.00
2022-10-19T00:52:15.852Z,5.90
2022-10-19T00:54:46.962Z,6.35
2022-10-19T00:57:15.137Z,6.20
2022-10-19T00:59:45.513Z,6.20
2022-10-19T01:02:12.972Z,5.43
2022-10-19T01:04:47.679Z,5.63
2022-10-19T01:07:14.636Z,5.22
2022-10-19T01:09:41.385Z,5.10
2022-10-19T01:12:35.028Z,5.43
2022-10-19T01:15:31.051Z,5.82
2022-10-19T01:18:20.799Z,5.60
2022-10-19T01:21:20.749Z,5.25
2022-10-19T01:24:17.821Z,6.88
2022-10-19T01:27:05.139Z,5.85
2022-10-19T01:30:01.759Z,5.75
2022-10-19T01:32:58.516Z,6.50
2022-10-19T01:36:08.414Z,6.10
2022-10-19T01:38:51.523Z,5.95
2022-10-19T01:41:30.267Z,5.80
2022-10-19T01:44:23.132Z,6.00
2022-10-19T01:47:06.149Z,5.90
2022-10-19T01:49:49.044Z,5.93
2022-10-19T01:52:20.827Z,5.95
2022-10-19T01:54:57.496Z,5.93
2022-10-19T01:57:32.903Z,6.15
2022-10-19T02:00:07.184Z,5.72
2022-10-19T02:02:45.109Z,5.32
2022-10-19T02:05:14.006Z,5.18
2022-10-19T02:07:46.250Z,4.63
2022-10-19T02:12:45.655Z,4.70
2022-10-19T02:15:19.479Z,5.35
2022-10-19T02:17:50.875Z,5.10
2022-10-19T02:20:19.106Z,5.20
2022-10-19T02:22:45.940Z,5.18
2022-10-19T02:25:13.714Z,5.03
2022-10-19T02:27:42.118Z,4.82
2022-10-19T02:30:15.550Z,4.47
2022-10-19T02:32:44.233Z,4.63
2022-10-19T02:35:14.552Z,4.40
2022-10-19T02:37:41.902Z,4.55
2022-10-19T02:40:10.160Z,4.35
2022-10-19T02:42:56.136Z,4.28
2022-10-19T02:45:30.844Z,5.03
2022-10-19T02:48:08.393Z,4.18
2022-10-19T02:50:35.951Z,4.82
2022-10-19T02:53:03.101Z,4.60
2022-10-19T02:55:31.299Z,4.45
2022-10-19T02:57:58.187Z,4.35
2022-10-19T03:00:25.144Z,4.50
2022-10-19T03:02:51.931Z,4.03
2022-10-19T03:05:18.656Z,4.38
2022-10-19T03:07:45.419Z,4.47
2022-10-19T03:10:12.379Z,4.32
2022-10-19T03:12:39.303Z,4.82
2022-10-19T03:15:06.963Z,4.53
2022-10-19T03:17:34.132Z,4.57
2022-10-19T03:20:00.969Z,4.03
2022-10-19T03:22:27.668Z,4.35
2022-10-19T03:24:54.421Z,4.15
2022-10-19T03:27:21.195Z,4.35
2022-10-19T03:29:47.906Z,4.03
2022-10-19T03:32:14.687Z,4.50
2022-10-19T03:34:41.575Z,4.30
2022-10-19T03:37:08.571Z,4.63
2022-10-19T03:39:35.630Z,4.15
2022-10-19T03:42:02.652Z,4.25
2022-10-19T03:44:29.395Z,4.10
2022-10-19T03:46:56.112Z,4.07
2022-10-19T03:49:22.828Z,4.53
2022-10-19T03:51:49.603Z,4.30
2022-10-19T03:54:17.657Z,4.15
2022-10-19T03:56:44.588Z,4.32
2022-10-19T03:59:14.664Z,4.30
2022-10-19T04:01:45.035Z,3.95
2022-10-19T04:04:18.447Z,3.90
2022-10-19T04:06:49.951Z,4.18
2022-10-19T04:09:20.386Z,4.13
2022-10-19T04:11:48.177Z,3.78
2022-10-19T04:14:26.830Z,5.13
2022-10-19T04:17:01.484Z,3.72
2022-10-19T04:19:28.405Z,3.63
2022-10-19T04:21:55.296Z,3.42
2022-10-19T04:24:22.173Z,3.45
2022-10-19T04:26:53.204Z,4.15
2022-10-19T04:29:25.057Z,4.18
2022-10-19T04:31:54.778Z,3.90
2022-10-19T04:34:21.566Z,3.75
2022-10-19T04:36:48.372Z,3.78
2022-10-19T04:39:15.284Z,3.88
2022-10-19T04:41:42.014Z,3.67
2022-10-19T04:44:10.026Z,3.83
2022-10-19T04:46:37.401Z,3.83
2022-10-19T04:49:06.078Z,4.28
2022-10-19T04:51:32.971Z,3.92
2022-10-19T04:54:00.080Z,4.15
2022-10-19T04:56:27.821Z,3.83
2022-10-19T04:58:58.700Z,3.70
2022-10-19T05:01:28.004Z,4.22
2022-10-19T05:06:31.932Z,3.90
2022-10-19T05:08:59.842Z,3.50
2022-10-19T05:11:27.231Z,3.33
2022-10-19T05:13:54.224Z,3.53
2022-10-19T05:16:23.552Z,4.05
2022-10-19T05:18:56.072Z,3.75
2022-10-19T05:21:22.959Z,3.45
2022-10-19T05:23:52.722Z,3.60
2022-10-19T05:26:22.655Z,3.85
2022-10-19T05:28:56.239Z,3.70
2022-10-19T05:31:26.993Z,3.35
2022-10-19T05:33:56.150Z,3.33
2022-10-19T05:36:34.773Z,3.70
2022-10-19T05:39:07.171Z,3.30
2022-10-19T05:41:34.745Z,4.05
2022-10-19T05:44:03.699Z,4.13
2022-10-19T05:46:32.318Z,2.85
2022-10-19T05:49:00.247Z,3.53
2022-10-19T05:51:28.216Z,3.67
2022-10-19T05:53:56.434Z,4.80
2022-10-19T05:56:29.497Z,4.18
2022-10-19T05:58:59.596Z,3.88
2022-10-19T06:01:28.491Z,3.40
2022-10-19T06:03:58.260Z,3.15
2022-10-19T06:06:27.279Z,3.75
2022-10-19T06:08:56.956Z,3.55
2022-10-19T06:11:31.342Z,3.00
2022-10-19T06:14:00.733Z,3.30
2022-10-19T06:16:29.908Z,3.17
2022-10-19T06:18:58.157Z,3.17
2022-10-19T06:21:29.774Z,3.58
2022-10-19T06:24:00.763Z,3.47
2022-10-19T06:26:29.166Z,3.88
2022-10-19T06:29:00.449Z,4.18
2022-10-19T06:31:33.426Z,3.38
2022-10-19T06:34:00.959Z,5.57
2022-10-19T06:36:30.984Z,5.03
2022-10-19T06:38:59.885Z,3.97
2022-10-19T06:41:27.227Z,4.05
2022-10-19T06:43:56.138Z,4.20
2022-10-19T06:46:26.114Z,3.25
2022-10-19T06:48:57.903Z,3.38
2022-10-19T06:51:27.702Z,4.13
2022-10-19T06:53:57.119Z,4.55
2022-10-19T06:56:25.780Z,3.58
2022-10-19T06:58:53.748Z,4.20
2022-10-19T07:01:21.570Z,4.00
2022-10-19T07:03:50.938Z,4.00
2022-10-19T07:06:18.748Z,4.07
2022-10-19T07:08:46.088Z,4.32
2022-10-19T07:11:17.740Z,3.67
2022-10-19T07:13:44.604Z,3.47
2022-10-19T07:16:19.557Z,3.55
2022-10-19T07:18:51.438Z,3.38
2022-10-19T07:21:21.031Z,3.88
2022-10-19T07:23:48.823Z,3.65
2022-10-19T07:26:23.806Z,3.47
2022-10-19T07:28:51.449Z,3.35
2022-10-19T07:31:22.201Z,4.00
2022-10-19T07:33:58.162Z,4.68
2022-10-19T07:36:26.304Z,5.13
2022-10-19T07:38:53.440Z,5.05
2022-10-19T07:41:23.952Z,5.95
2022-10-19T07:43:52.260Z,4.10
2022-10-19T07:46:26.177Z,4.03
2022-10-19T07:48:53.726Z,3.17
2022-10-19T07:51:21.342Z,4.18
2022-10-19T07:53:48.194Z,3.13
2022-10-19T07:56:19.053Z,3.38
2022-10-19T07:58:47.400Z,3.00
2022-10-19T08:01:21.384Z,3.20
2022-10-19T08:06:37.364Z,2.80
2022-10-19T08:09:05.807Z,3.03
2022-10-19T08:11:35.736Z,3.85
2022-10-19T08:14:03.887Z,2.97
2022-10-19T08:16:41.624Z,3.42
2022-10-19T08:19:11.853Z,4.03
2022-10-19T08:21:42.486Z,3.63
2022-10-19T08:24:09.983Z,3.65
2022-10-19T08:26:39.035Z,3.00
2022-10-19T08:29:10.774Z,3.33
2022-10-19T08:31:38.302Z,3.00
2022-10-19T08:34:05.985Z,3.40
2022-10-19T08:36:35.409Z,3.17
2022-10-19T08:39:08.192Z,2.72
2022-10-19T08:41:40.820Z,2.50
2022-10-19T08:45:02.080Z,2.97
2022-10-19T08:47:34.745Z,2.53
2022-10-19T08:50:03.543Z,2.63
2022-10-19T08:52:35.224Z,2.50
2022-10-19T08:55:15.202Z,3.22
2022-10-19T08:58:24.393Z,2.97
2022-10-19T09:01:19.576Z,3.05
2022-10-19T09:04:08.105Z,2.83
2022-10-19T09:07:03.861Z,2.42
2022-10-19T09:09:33.355Z,2.28
2022-10-19T09:12:07.397Z,3.20
2022-10-19T09:14:48.949Z,2.88
2022-10-19T09:17:19.712Z,2.40
2022-10-19T09:19:46.528Z,2.80
2022-10-19T09:22:34.768Z,2.70
2022-10-19T09:25:21.265Z,2.72
2022-10-19T09:27:58.837Z,2.42
2022-10-19T09:30:27.927Z,3.08
2022-10-19T09:33:02.684Z,2.47
2022-10-19T09:35:38.708Z,2.67
2022-10-19T09:38:07.667Z,2.42
2022-10-19T09:40:35.597Z,1.95
2022-10-19T09:43:20.619Z,2.28
2022-10-19T09:46:20.641Z,2.17
2022-10-19T09:48:52.953Z,2.30
2022-10-19T09:51:20.983Z,1.80
2022-10-19T09:53:55.129Z,1.98
2022-10-19T09:56:25.804Z,2.47
2022-10-19T09:58:58.846Z,2.30
2022-10-19T10:01:43.834Z,2.10
2022-10-19T10:04:17.656Z,2.15
2022-10-19T10:06:48.465Z,2.10
2022-10-19T10:09:25.818Z,2.15
2022-10-19T10:11:57.119Z,1.92
2022-10-19T10:14:41.680Z,1.80
2022-10-19T10:17:17.850Z,1.63
2022-10-19T10:19:58.181Z,1.90
2022-10-19T10:22:31.503Z,1.80
2022-10-19T10:24:58.421Z,1.83
2022-10-19T10:27:39.357Z,1.58
2022-10-19T10:30:15.637Z,1.48
2022-10-19T10:32:54.779Z,1.60
2022-10-19T10:35:28.938Z,1.60
2022-10-19T10:38:13.164Z,1.83
2022-10-19T10:40:40.884Z,1.55
2022-10-19T10:43:16.626Z,1.45
2022-10-19T10:45:49.427Z,1.73
2022-10-19T10:48:31.786Z,1.95
2022-10-19T10:51:01.687Z,1.27
2022-10-19T10:53:31.876Z,1.50
2022-10-19T10:55:58.687Z,1.13
2022-10-19T10:58:55.813Z,1.30
2022-10-19T11:01:32.736Z,1.30
2022-10-19T11:04:13.898Z,1.50
2022-10-19T11:06:58.245Z,1.98
2022-10-19T11:09:36.352Z,1.20
2022-10-19T11:12:10.190Z,1.50
2022-10-19T11:15:08.629Z,1.42
2022-10-19T11:17:42.781Z,1.25
2022-10-19T11:20:16.272Z,1.33
2022-10-19T11:23:24.770Z,1.40
2022-10-19T11:26:26.228Z,1.98
2022-10-19T11:29:45.583Z,1.30
2022-10-19T11:33:03.750Z,1.20
2022-10-19T11:35:49.649Z,1.38
2022-10-19T11:39:06.871Z,1.98
2022-10-19T11:42:02.329Z,1.40
2022-10-19T11:44:51.671Z,1.02
2022-10-19T11:47:29.771Z,1.38
2022-10-19T11:50:13.646Z,1.27
2022-10-19T11:52:59.236Z,1.55
2022-10-19T11:55:58.958Z,1.38
2022-10-19T11:58:35.393Z,1.63
2022-10-19T12:01:28.738Z,1.10
2022-10-19T12:04:29.153Z,1.00
2022-10-19T12:07:35.714Z,1.50
2022-10-19T12:10:33.631Z,1.15
2022-10-19T12:13:10.193Z,1.20
2022-10-19T12:15:44.451Z,1.00
2022-10-19T12:18:38.634Z,1.10
2022-10-19T12:21:17.989Z,1.08
2022-10-19T12:23:46.853Z,1.20
2022-10-19T12:26:20.965Z,1.10
2022-10-19T12:29:06.368Z,1.50
2022-10-19T12:31:35.920Z,1.27
2022-10-19T12:34:44.451Z,1.20
2022-10-19T12:37:29.121Z,1.20
2022-10-19T12:40:12.511Z,1.13
2022-10-19T12:43:19.376Z,1.02
2022-10-19T12:46:21.809Z,1.20
2022-10-19T12:49:26.565Z,1.50
2022-10-19T12:51:56.139Z,1.40
2022-10-19T12:54:28.111Z,0.88
2022-10-19T12:56:58.697Z,1.63
2022-10-19T12:59:36.293Z,1.10
2022-10-19T13:02:22.368Z,1.40
2022-10-19T13:04:55.539Z,1.10
2022-10-19T13:07:25.575Z,1.48
2022-10-19T13:10:02.453Z,1.40
2022-10-19T13:12:43.610Z,1.52
2022-10-19T13:15:36.227Z,1.27
2022-10-19T13:18:55.931Z,1.58
2022-10-19T13:21:58.342Z,1.40
2022-10-19T13:24:25.095Z,1.58
2022-10-19T13:27:04.121Z,1.42
2022-10-19T13:29:44.601Z,1.77
2022-10-19T13:32:38.192Z,1.75
2022-10-19T13:35:33.865Z,1.50
2022-10-19T13:38:09.512Z,1.85
2022-10-19T13:40:47.431Z,1.65
2022-10-19T13:43:28.465Z,2.25
2022-10-19T13:46:14.492Z,1.35
2022-10-19T13:49:04.903Z,1.60
2022-10-19T13:51:37.480Z,1.40
2022-10-19T13:54:48.769Z,1.45
2022-10-19T13:57:25.795Z,1.98
2022-10-19T14:00:10.997Z,1.30
2022-10-19T14:03:26.429Z,1.80
2022-10-19T14:06:13.079Z,2.03
2022-10-19T14:09:33.867Z,1.90
2022-10-19T14:12:31.560Z,1.90
2022-10-19T14:14:59.685Z,1.23
2022-10-19T14:17:34.086Z,1.10
2022-10-19T14:20:01.668Z,1.15
2022-10-19T14:22:35.848Z,1.27
2022-10-19T14:25:20.521Z,1.05
2022-10-19T14:27:54.268Z,1.58
2022-10-19T14:30:27.371Z,1.10
2022-10-19T14:32:59.418Z,1.27
2022-10-19T14:35:35.369Z,1.63
2022-10-19T14:38:06.124Z,1.58
2022-10-19T14:40:39.485Z,1.10
2022-10-19T14:43:34.004Z,0.98
2022-10-19T14:46:16.624Z,1.02
2022-10-19T14:48:49.409Z,1.25
2022-10-19T14:51:34.478Z,1.30
2022-10-19T14:54:20.062Z,0.90
2022-10-19T14:57:03.749Z,0.95
2022-10-19T14:59:46.156Z,1.00
2022-10-19T15:02:31.273Z,0.95
2022-10-19T15:05:03.019Z,1.02
2022-10-19T15:07:38.857Z,0.93
2022-10-19T15:10:18.743Z,1.20
2022-10-19T15:12:46.080Z,0.82
2022-10-19T15:15:30.259Z,1.00
2022-10-19T15:18:06.682Z,0.98
2022-10-19T15:20:49.205Z,0.90
2022-10-19T15:23:37.953Z,1.15
2022-10-19T15:29:06.469Z,0.82
2022-10-19T15:31:33.761Z,0.80
2022-10-19T15:34:03.443Z,0.90
2022-10-19T15:36:32.672Z,1.08
2022-10-19T15:39:18.550Z,1.08
2022-10-19T15:41:52.735Z,0.80
2022-10-19T15:44:43.857Z,1.00
2022-10-19T15:47:22.668Z,1.00
2022-10-19T15:50:01.198Z,1.35
2022-10-19T15:52:33.076Z,1.40
2022-10-19T15:55:01.531Z,1.35
2022-10-19T15:57:38.546Z,1.10
2022-10-19T16:00:16.697Z,1.08
2022-10-19T16:02:43.660Z,1.90
2022-10-19T16:07:40.847Z,1.33
2022-10-19T16:10:15.510Z,1.60
2022-10-19T16:12:42.535Z,1.33
2022-10-19T16:15:22.023Z,1.50
2022-10-19T16:17:52.975Z,1.70
2022-10-19T16:20:21.084Z,1.58
2022-10-19T16:22:48.684Z,1.60
2022-10-19T16:25:16.343Z,1.50
2022-10-19T16:27:43.392Z,1.40
2022-10-19T16:30:11.394Z,1.75
2022-10-19T16:32:39.833Z,1.75
2022-10-19T16:35:08.611Z,2.70
2022-10-19T16:37:35.754Z,1.85
2022-10-19T16:40:04.267Z,1.70
2022-10-19T16:42:31.585Z,1.67
2022-10-19T16:44:58.356Z,1.98
2022-10-19T16:47:25.219Z,1.90
2022-10-19T16:50:03.900Z,1.85
2022-10-19T16:52:32.795Z,1.67
2022-10-19T16:55:00.630Z,1.98
2022-10-19T16:57:27.436Z,1.80
2022-10-19T16:59:54.527Z,1.90
2022-10-19T17:02:22.187Z,1.67
2022-10-19T17:04:49.185Z,1.83
2022-10-19T17:07:16.568Z,2.20
2022-10-19T17:09:43.507Z,2.30
2022-10-19T17:12:11.304Z,2.88
2022-10-19T17:14:41.563Z,2.60
2022-10-19T17:17:10.339Z,3.13
2022-10-19T17:19:38.353Z,3.28
2022-10-19T17:22:05.484Z,3.20
2022-10-19T17:24:32.428Z,2.78
2022-10-19T17:27:03.114Z,2.78
2022-10-19T17:29:30.539Z,3.20
2022-10-19T17:31:58.089Z,2.95
2022-10-19T17:34:24.959Z,3.30
2022-10-19T17:36:51.703Z,4.60
2022-10-19T17:39:27.195Z,6.70
2022-10-19T17:42:01.319Z,4.53
2022-10-19T17:44:30.390Z,4.05
2022-10-19T17:46:57.475Z,4.10
2022-10-19T17:49:24.474Z,4.22
2022-10-19T17:51:53.531Z,4.10
2022-10-19T17:54:20.587Z,4.15
2022-10-19T17:56:47.426Z,4.35
2022-10-19T17:59:14.445Z,4.20
2022-10-19T18:01:41.641Z,4.93
2022-10-19T18:04:08.411Z,4.68
2022-10-19T18:06:38.373Z,4.80
2022-10-19T18:09:08.401Z,4.40
2022-10-19T18:11:43.340Z,4.00
2022-10-19T18:14:12.596Z,4.03
2022-10-19T18:16:47.047Z,4.15
2022-10-19T18:19:16.520Z,4.10
2022-10-19T18:21:46.912Z,4.07
2022-10-19T18:24:19.650Z,5.13
2022-10-19T18:26:49.364Z,4.75
2022-10-19T18:29:21.337Z,4.80
2022-10-19T18:31:51.412Z,4.38
2022-10-19T18:34:23.818Z,4.50
2022-10-19T18:36:51.915Z,4.45
2022-10-19T18:39:19.029Z,5.00
2022-10-19T18:41:45.954Z,4.50
2022-10-19T18:44:13.842Z,4.00
2022-10-19T18:46:40.938Z,3.83
2022-10-19T18:49:11.023Z,3.88
2022-10-19T18:51:38.062Z,4.47
2022-10-19T18:54:05.383Z,4.63
2022-10-19T18:56:36.477Z,4.20
2022-10-19T18:59:04.812Z,3.97
2022-10-19T19:01:31.665Z,3.97
2022-10-19T19:04:08.153Z,4.10
2022-10-19T19:06:37.331Z,3.63
2022-10-19T19:09:08.792Z,3.70
2022-10-19T19:11:38.151Z,3.40
2022-10-19T19:14:13.627Z,3.78
2022-10-19T19:16:42.789Z,4.10
2022-10-19T19:19:13.203Z,4.20
2022-10-19T19:21:43.679Z,3.65
2022-10-19T19:24:17.323Z,3.50
2022-10-19T19:26:50.082Z,3.88
2022-10-19T19:29:18.664Z,3.75
2022-10-19T19:31:45.759Z,3.83
2022-10-19T19:34:12.699Z,3.75
2022-10-19T19:36:47.969Z,3.83
2022-10-19T19:39:19.236Z,4.10
2022-10-19T19:41:47.337Z,3.67
2022-10-19T19:44:14.394Z,3.72
2022-10-19T19:46:41.222Z,3.53
2022-10-19T19:49:08.340Z,3.97
2022-10-19T19:51:35.306Z,3.92
2022-10-19T19:54:02.206Z,3.50
2022-10-19T19:56:29.476Z,3.40
2022-10-19T19:58:59.502Z,4.00
2022-10-19T20:01:27.047Z,3.72
2022-10-19T20:03:54.068Z,3.80
2022-10-19T20:06:24.994Z,3.30
2022-10-19T20:08:54.258Z,3.30
2022-10-19T20:11:22.068Z,3.78
2022-10-19T20:13:49.374Z,3.33
2022-10-19T20:16:22.740Z,3.70
2022-10-19T20:19:00.300Z,4.07
2022-10-19T20:21:27.666Z,3.70
2022-10-19T20:23:54.481Z,3.75
2022-10-19T20:26:24.241Z,4.00
2022-10-19T20:28:52.556Z,3.58
2022-10-19T20:31:20.273Z,3.75
2022-10-19T20:33:48.062Z,3.50
2022-10-19T20:36:24.558Z,4.00
2022-10-19T20:38:54.968Z,3.60
2022-10-19T20:41:24.164Z,3.40
2022-10-19T20:43:51.785Z,3.67
2022-10-19T20:46:22.170Z,3.40
2022-10-19T20:48:50.444Z,3.83
2022-10-19T20:51:31.994Z,3.60
2022-10-19T20:54:01.643Z,3.88
2022-10-19T20:56:32.127Z,3.80
2022-10-19T20:59:21.988Z,3.58
2022-10-19T21:01:51.770Z,4.00
2022-10-19T21:04:19.239Z,3.85
2022-10-19T21:06:49.348Z,3.45
2022-10-19T21:09:20.237Z,3.20
2022-10-19T21:11:50.368Z,3.50
2022-10-19T21:14:27.137Z,3.55
2022-10-19T21:16:57.993Z,3.60
2022-10-19T21:19:28.264Z,3.25
2022-10-19T21:22:01.878Z,4.15
2022-10-19T21:24:33.373Z,3.40
2022-10-19T21:27:03.650Z,3.63
2022-10-19T21:29:30.816Z,3.17
2022-10-19T21:31:57.547Z,3.80
2022-10-19T21:34:27.876Z,3.88
2022-10-19T21:36:55.380Z,3.72
2022-10-19T21:39:22.756Z,3.78
2022-10-19T21:41:49.974Z,3.38
2022-10-19T21:44:18.649Z,3.35
2022-10-19T21:46:47.949Z,3.70
2022-10-19T21:49:15.535Z,4.30
2022-10-19T21:51:49.701Z,3.65
2022-10-19T21:54:19.743Z,3.05
2022-10-19T21:56:47.295Z,3.55
2022-10-19T21:59:15.413Z,3.75
2022-10-19T22:01:42.551Z,3.20
2022-10-19T22:04:13.786Z,3.95
2022-10-19T22:06:42.261Z,3.78
2022-10-19T22:09:16.941Z,4.03
2022-10-19T22:11:44.548Z,4.10
2022-10-19T22:14:13.765Z,3.53
2022-10-19T22:16:41.838Z,3.72
2022-10-19T22:19:09.859Z,3.92
2022-10-19T22:24:10.087Z,3.47
2022-10-19T22:26:42.689Z,3.60
2022-10-19T22:29:09.552Z,3.47
2022-10-19T22:31:37.206Z,4.57
2022-10-19T22:34:14.855Z,3.97
2022-10-19T22:36:42.393Z,3.67
2022-10-19T22:39:09.808Z,4.00
2022-10-19T22:42:04.940Z,4.13
2022-10-19T22:44:31.892Z,4.10
2022-10-19T22:46:59.032Z,4.72
2022-10-19T22:49:25.809Z,3.88
2022-10-19T22:51:52.532Z,4.30
2022-10-19T22:54:19.305Z,4.65
2022-10-19T22:56:46.097Z,4.93
2022-10-19T22:59:12.824Z,4.70
2022-10-19T23:01:39.756Z,4.10
2022-10-19T23:04:06.948Z,4.05
2022-10-19T23:06:33.720Z,4.30
2022-10-19T23:09:00.670Z,4.63
2022-10-19T23:11:27.462Z,4.28
2022-10-19T23:13:54.252Z,4.35
2022-10-19T23:16:21.058Z,4.93
2022-10-19T23:18:48.169Z,4.30
2022-10-19T23:21:15.652Z,4.00
2022-10-19T23:23:42.952Z,3.80
2022-10-19T23:26:17.709Z,4.28
2022-10-19T23:28:48.666Z,4.50
2022-10-19T23:31:20.951Z,4.15
2022-10-19T23:33:47.687Z,3.83
2022-10-19T23:36:17.065Z,3.90
2022-10-19T23:38:48.504Z,4.00
2022-10-19T23:41:16.406Z,4.20
2022-10-19T23:43:44.086Z,4.55
2022-10-19T23:46:11.945Z,4.53
2022-10-19T23:48:39.843Z,4.90
2022-10-19T23:51:10.872Z,4.90
2022-10-19T23:53:41.760Z,4.57
2022-10-19T23:56:13.530Z,4.18
2022-10-19T23:58:40.656Z,4.95
